Time;durP1;ratioP1;P1;durP2;ratioP2;P2;SDS_P1;SDS_P2;PMS_P1;PMS_P2;Temp;Humidity;BMP_temperature;BMP_pressure;BME280_temperature;BME280_humidity;BME280_pressure;Samples;Min_cycle;Max_cycle;Signal;HPM_P1;HPM_P2
2023/03/05 00:01:55;;;;;;;49.92;30.45;;;;;;;8.47;46.82;98925.16;5112013;28;20026;-48
2023/03/05 00:04:22;;;;;;;46.60;28.08;;;;;;;8.36;46.74;98925.56;5111959;28;20053;-47
2023/03/05 00:06:50;;;;;;;54.05;30.70;;;;;;;8.35;46.94;98921.28;5111785;28;20392;-47
2023/03/05 00:09:19;;;;;;;47.03;27.13;;;;;;;8.46;46.94;98922.69;5111932;28;20103;-47
2023/03/05 00:11:50;;;;;;;52.33;30.63;;;;;;;8.57;46.71;98914.38;5093619;28;20521;-47
2023/03/05 00:14:17;;;;;;;57.10;30.60;;;;;;;8.63;46.81;98913.66;5093571;28;20065;-47
2023/03/05 00:16:45;;;;;;;51.20;31.33;;;;;;;8.71;46.93;98916.19;5111895;28;20045;-47
2023/03/05 00:19:12;;;;;;;53.78;31.27;;;;;;;8.72;46.79;98914.38;5111712;28;20099;-47
2023/03/05 00:21:41;;;;;;;52.63;32.25;;;;;;;8.73;46.44;98923.84;5111851;28;20397;-47
2023/03/05 00:24:22;;;;;;;54.13;31.92;;;;;;;8.66;47.06;98925.59;5111758;28;20156;-47
2023/03/05 00:26:48;;;;;;;53.78;30.75;;;;;;;8.60;47.06;98925.31;5111692;28;20028;-47
2023/03/05 00:29:20;;;;;;;51.80;30.20;;;;;;;8.54;46.76;98931.25;5111407;28;20043;-47
2023/03/05 00:31:48;;;;;;;51.63;29.92;;;;;;;8.40;47.32;98939.88;5111731;28;20028;-47
2023/03/05 00:34:17;;;;;;;54.65;31.30;;;;;;;8.32;47.88;98942.59;5111672;28;20023;-47
2023/03/05 00:36:48;;;;;;;55.55;34.50;;;;;;;8.49;47.40;98944.09;5111704;28;20489;-47
2023/03/05 00:39:16;;;;;;;57.10;32.47;;;;;;;8.45;47.20;98948.06;5093515;28;20081;-47
2023/03/05 00:41:43;;;;;;;52.65;32.17;;;;;;;8.43;47.96;98947.41;5111592;28;20031;-47
2023/03/05 00:44:10;;;;;;;49.55;31.73;;;;;;;8.34;47.74;98946.66;5112467;28;20393;-47
2023/03/05 00:46:39;;;;;;;68.80;33.55;;;;;;;8.26;48.31;98951.16;5115176;28;20502;-47
2023/03/05 00:49:06;;;;;;;60.35;33.95;;;;;;;8.30;47.69;98948.00;5097250;28;20089;-47
2023/03/05 00:51:33;;;;;;;60.85;32.33;;;;;;;8.25;47.57;98941.66;5096898;28;20028;-47
2023/03/05 00:54:02;;;;;;;54.88;31.67;;;;;;;8.22;48.40;98942.03;5115272;28;20139;-47
2023/03/05 00:56:30;;;;;;;61.17;35.42;;;;;;;8.10;48.13;98941.66;5115166;28;20080;-47
2023/03/05 00:58:56;;;;;;;54.63;31.92;;;;;;;7.77;48.46;98950.59;5115106;28;20080;-47
2023/03/05 01:01:24;;;;;;;57.17;34.08;;;;;;;7.66;49.31;98948.38;5115061;28;20023;-47
2023/03/05 01:03:51;;;;;;;58.03;33.70;;;;;;;7.56;49.36;98948.63;5114989;28;20028;-47
2023/03/05 01:06:18;;;;;;;51.35;32.45;;;;;;;7.41;50.33;98945.16;5114760;28;20108;-47
2023/03/05 01:09:03;;;;;;;54.90;30.73;;;;;;;7.50;49.75;98944.09;5114977;28;20023;-48
2023/03/05 01:11:39;;;;;;;53.88;32.10;;;;;;;7.73;49.65;98938.88;5114832;28;20027;-47
2023/03/05 01:14:06;;;;;;;56.22;32.65;;;;;;;7.86;49.08;98943.50;5096531;28;20073;-48
2023/03/05 01:16:42;;;;;;;57.85;34.10;;;;;;;7.87;49.50;98934.69;5114683;28;20027;-49
2023/03/05 01:19:16;;;;;;;55.65;32.85;;;;;;;7.86;49.41;98942.69;5114729;28;20099;-48
2023/03/05 01:21:53;;;;;;;56.78;34.28;;;;;;;7.61;49.25;98932.44;5096358;28;20401;-48
2023/03/05 01:24:21;;;;;;;51.90;32.85;;;;;;;7.39;50.15;98927.03;5114531;28;20023;-47
2023/03/05 01:26:58;;;;;;;57.72;33.97;;;;;;;7.32;49.59;98931.31;5096039;28;20023;-47
2023/03/05 01:29:30;;;;;;;50.03;28.77;;;;;;;7.18;50.55;98930.28;5112208;28;20425;-47
2023/03/05 01:32:05;;;;;;;52.30;31.98;;;;;;;7.13;50.29;98932.59;5096100;28;20039;-48
2023/03/05 01:34:32;;;;;;;54.28;31.23;;;;;;;7.12;50.84;98920.53;5096075;28;20055;-47
2023/03/05 01:37:08;;;;;;;57.85;31.85;;;;;;;7.38;50.85;98929.81;5114365;28;20019;-48
2023/03/05 01:39:35;;;;;;;57.38;34.30;;;;;;;7.70;49.86;98931.38;5095777;28;20035;-47
2023/03/05 01:42:05;;;;;;;55.78;32.78;;;;;;;7.90;49.80;98921.25;5096256;28;20015;-48
2023/03/05 01:44:33;;;;;;;51.05;32.00;;;;;;;7.99;49.68;98920.19;5114257;28;20493;-47
2023/03/05 01:47:23;;;;;;;51.33;30.17;;;;;;;8.07;48.83;98919.31;5114101;28;20051;-47
2023/03/05 01:50:00;;;;;;;56.25;32.55;;;;;;;7.99;48.71;98908.94;5095732;28;20062;-48
2023/03/05 01:52:33;;;;;;;52.00;30.75;;;;;;;7.83;49.28;98914.28;5095789;28;20020;-48
2023/03/05 01:55:32;;;;;;;54.22;31.70;;;;;;;7.59;49.41;98913.53;5095286;28;20493;-47
2023/03/05 01:58:03;;;;;;;54.60;31.73;;;;;;;7.49;49.67;98918.16;5095851;28;20022;-49
2023/03/05 02:01:03;;;;;;;50.95;30.80;;;;;;;7.19;50.07;98918.03;5095553;28;20027;-47
2023/03/05 02:03:32;;;;;;;57.20;30.80;;;;;;;6.83;50.53;98912.53;5095486;28;20568;-47
2023/03/05 02:06:00;;;;;;;54.50;32.35;;;;;;;6.63;50.82;98915.53;5095398;28;20587;-47
2023/03/05 02:08:28;;;;;;;52.90;32.83;;;;;;;6.51;51.54;98920.31;5113811;28;20019;-48
2023/03/05 02:10:56;;;;;;;67.15;44.45;;;;;;;6.37;52.04;98916.59;5113688;28;20028;-47
2023/03/05 02:13:39;;;;;;;58.03;37.80;;;;;;;6.24;52.23;98916.31;5095562;28;20020;-49
2023/03/05 02:16:06;;;;;;;82.82;56.80;;;;;;;6.17;52.85;98917.94;5113574;28;20058;-47
2023/03/05 02:18:55;;;;;;;63.17;38.80;;;;;;;6.24;52.63;98912.88;5095253;28;20428;-47
2023/03/05 02:21:54;;;;;;;46.78;29.48;;;;;;;6.33;53.10;98917.91;5111436;28;20039;-49
2023/03/05 02:24:39;;;;;;;49.97;28.90;;;;;;;6.48;52.19;98907.63;5113346;28;20027;-47
2023/03/05 02:27:14;;;;;;;46.50;29.23;;;;;;;6.32;52.05;98918.91;5113394;28;20047;-47
2023/03/05 02:29:53;;;;;;;46.88;28.23;;;;;;;6.08;51.78;98905.94;5109571;28;20529;-48
2023/03/05 02:32:24;;;;;;;50.38;29.40;;;;;;;5.95;53.12;98906.44;5113271;28;20035;-48
2023/03/05 02:34:50;;;;;;;47.50;29.88;;;;;;;5.88;53.47;98906.25;5113302;28;20016;-47
2023/03/05 02:37:20;;;;;;;45.83;27.25;;;;;;;6.01;52.97;98900.56;5113074;28;20031;-48
2023/03/05 02:39:46;;;;;;;47.45;29.38;;;;;;;5.95;53.44;98906.44;5113009;28;20019;-47
2023/03/05 02:42:23;;;;;;;42.95;26.60;;;;;;;6.03;53.36;98897.78;5094745;28;20019;-48
2023/03/05 02:44:51;;;;;;;44.25;27.20;;;;;;;6.29;53.30;98902.78;5094636;28;20027;-47
2023/03/05 02:47:26;;;;;;;44.70;25.95;;;;;;;6.36;52.32;98903.75;5094722;28;20032;-47
2023/03/05 02:49:53;;;;;;;48.63;28.90;;;;;;;6.20;52.29;98900.19;5112883;28;20027;-47
2023/03/05 02:52:30;;;;;;;44.88;28.63;;;;;;;5.99;53.11;98890.28;5094565;28;20020;-47
2023/03/05 02:55:06;;;;;;;44.22;26.92;;;;;;;6.00;52.93;98891.13;5094565;28;20032;-48
2023/03/05 02:57:44;;;;;;;45.90;27.60;;;;;;;6.15;52.94;98892.06;5094540;28;20019;-49
2023/03/05 03:00:19;;;;;;;53.42;30.00;;;;;;;6.23;52.95;98885.22;5112725;28;20035;-47
2023/03/05 03:02:49;;;;;;;45.92;28.13;;;;;;;6.10;52.31;98890.94;5094510;28;20020;-48
2023/03/05 03:05:16;;;;;;;44.97;26.92;;;;;;;5.94;52.81;98882.16;5112578;28;20087;-47
2023/03/05 03:07:53;;;;;;;45.83;27.63;;;;;;;5.82;53.48;98877.47;5112030;28;20027;-48
2023/03/05 03:10:22;;;;;;;48.70;28.67;;;;;;;5.69;53.72;98875.34;5094309;28;20019;-48
2023/03/05 03:12:55;;;;;;;45.85;26.25;;;;;;;5.56;54.20;98879.25;5112526;28;20504;-49
2023/03/05 03:15:36;;;;;;;45.78;26.48;;;;;;;5.49;54.35;98874.84;5112817;28;20405;-48
2023/03/05 03:18:03;;;;;;;46.75;26.23;;;;;;;5.49;54.12;98878.25;5112463;28;20024;-47
2023/03/05 03:20:39;;;;;;;40.97;25.15;;;;;;;5.54;54.64;98872.59;5094124;28;20118;-47
2023/03/05 03:23:08;;;;;;;42.67;24.98;;;;;;;5.50;54.74;98881.69;5094085;28;20114;-47
2023/03/05 03:25:36;;;;;;;44.85;25.08;;;;;;;5.49;54.30;98877.44;5093996;28;20035;-47
2023/03/05 03:28:08;;;;;;;42.17;26.83;;;;;;;5.44;54.15;98874.53;5094570;28;20425;-47
2023/03/05 03:30:36;;;;;;;44.60;24.60;;;;;;;5.45;54.41;98873.56;5071810;28;20031;-47
2023/03/05 03:33:03;;;;;;;39.55;24.08;;;;;;;5.39;54.87;98860.22;5070738;28;20041;-46
2023/03/05 03:35:29;;;;;;;45.53;25.95;;;;;;;5.35;54.68;98861.53;5070412;28;20084;-46
2023/03/05 03:37:56;;;;;;;39.25;23.75;;;;;;;5.36;54.01;98864.94;5072070;28;20037;-46
2023/03/05 03:40:23;;;;;;;39.15;26.65;;;;;;;5.36;54.89;98860.53;5071707;28;20029;-47
2023/03/05 03:42:53;;;;;;;40.47;26.83;;;;;;;5.35;54.68;98869.34;5070368;28;20028;-47
2023/03/05 03:45:21;;;;;;;44.58;24.98;;;;;;;5.40;55.08;98867.03;5071588;28;20391;-46
2023/03/05 03:47:49;;;;;;;38.90;25.33;;;;;;;5.36;54.26;98864.94;5070304;28;20114;-47
2023/03/05 03:50:17;;;;;;;43.13;24.85;;;;;;;5.15;54.92;98868.81;5070281;28;20023;-47
2023/03/05 03:52:46;;;;;;;41.75;24.33;;;;;;;5.09;55.65;98853.88;5071668;28;20025;-46
2023/03/05 03:55:13;;;;;;;37.72;23.55;;;;;;;5.29;55.34;98858.75;5071587;28;20568;-47
2023/03/05 03:57:42;;;;;;;42.30;26.02;;;;;;;5.33;55.46;98852.22;5071613;28;20025;-46
2023/03/05 04:00:10;;;;;;;42.38;23.13;;;;;;;5.38;55.23;98845.56;5071487;28;20024;-46
2023/03/05 04:02:38;;;;;;;35.30;22.15;;;;;;;5.45;54.68;98863.13;5070183;28;20120;-46
2023/03/05 04:05:06;;;;;;;40.70;21.38;;;;;;;5.49;54.61;98849.63;5071345;28;20031;-46
2023/03/05 04:07:33;;;;;;;40.85;23.30;;;;;;;5.66;54.87;98853.06;5071511;28;20024;-47
2023/03/05 04:10:03;;;;;;;35.65;23.30;;;;;;;5.76;53.93;98855.47;5071473;28;20025;-47
2023/03/05 04:12:30;;;;;;;40.83;23.08;;;;;;;5.63;53.78;98855.97;5071720;28;20429;-47
2023/03/05 04:14:56;;;;;;;38.67;23.00;;;;;;;5.45;54.09;98857.94;5071386;28;20025;-47
2023/03/05 04:17:23;;;;;;;44.92;23.90;;;;;;;5.30;54.83;98857.78;5053393;28;20027;-47
2023/03/05 04:19:51;;;;;;;34.63;21.55;;;;;;;5.30;54.91;98860.38;5074831;28;20455;-47
2023/03/05 04:22:18;;;;;;;40.25;24.08;;;;;;;5.07;55.10;98860.19;5075154;28;20021;-46
2023/03/05 04:24:45;;;;;;;36.28;24.23;;;;;;;5.16;55.75;98859.22;5075158;28;20457;-47
2023/03/05 04:27:12;;;;;;;41.20;24.35;;;;;;;5.28;55.41;98855.34;5075117;28;20462;-47
2023/03/05 04:29:39;;;;;;;38.10;23.83;;;;;;;5.39;55.13;98852.41;5099753;28;20127;-47
2023/03/05 04:32:07;;;;;;;35.47;22.63;;;;;;;5.19;54.39;98861.50;5115682;28;20039;-46
2023/03/05 04:34:35;;;;;;;37.33;21.75;;;;;;;5.10;55.73;98857.28;5115653;28;20087;-46
2023/03/05 04:37:02;;;;;;;36.80;20.73;;;;;;;5.36;55.31;98855.34;5097309;28;20038;-46
2023/03/05 04:39:30;;;;;;;63.53;40.20;;;;;;;5.48;55.43;98861.03;5097485;28;20080;-47
2023/03/05 04:41:57;;;;;;;43.97;22.70;;;;;;;5.49;54.91;98854.03;5115527;28;20601;-46
2023/03/05 04:44:24;;;;;;;56.47;35.97;;;;;;;5.35;55.16;98852.88;5097391;28;20531;-47
2023/03/05 04:46:51;;;;;;;44.72;25.13;;;;;;;5.46;55.26;98855.19;5115328;28;20030;-47
2023/03/05 04:49:19;;;;;;;32.92;20.23;;;;;;;5.60;54.95;98851.09;5115335;28;20530;-47
2023/03/05 04:51:46;;;;;;;41.03;22.60;;;;;;;5.70;54.55;98854.34;5115201;28;20035;-47
2023/03/05 04:54:14;;;;;;;33.67;23.25;;;;;;;5.81;54.33;98855.78;5115530;28;20457;-47
2023/03/05 04:56:41;;;;;;;40.92;22.98;;;;;;;5.49;53.56;98848.81;5115207;28;20059;-47
2023/03/05 04:59:07;;;;;;;37.05;20.38;;;;;;;5.39;54.39;98846.38;5115011;28;20048;-47
2023/03/05 05:01:34;;;;;;;34.15;21.42;;;;;;;5.44;55.05;98851.13;5096733;28;20034;-47
2023/03/05 05:04:02;;;;;;;32.35;19.27;;;;;;;5.46;54.33;98844.75;5096746;28;20122;-47
2023/03/05 05:06:29;;;;;;;36.53;21.52;;;;;;;5.37;54.20;98849.16;5114877;28;20378;-47
2023/03/05 05:08:56;;;;;;;36.58;20.48;;;;;;;5.27;55.64;98843.31;5114864;28;20028;-47
2023/03/05 05:11:23;;;;;;;42.42;22.23;;;;;;;5.42;55.64;98843.47;5114913;28;20509;-47
2023/03/05 05:13:50;;;;;;;33.75;20.23;;;;;;;5.54;55.67;98841.34;5096550;28;20023;-47
2023/03/05 05:16:17;;;;;;;37.08;20.55;;;;;;;5.62;55.84;98835.31;5114845;28;20564;-47
2023/03/05 05:18:44;;;;;;;36.33;21.60;;;;;;;5.73;55.01;98840.97;5096473;28;20062;-47
2023/03/05 05:21:13;;;;;;;32.35;19.48;;;;;;;5.68;54.17;98837.28;5096399;28;20020;-47
2023/03/05 05:23:40;;;;;;;38.40;21.75;;;;;;;5.61;54.45;98842.31;5114898;28;20490;-47
2023/03/05 05:26:08;;;;;;;37.17;22.73;;;;;;;5.58;54.79;98840.03;5114579;28;20582;-47
2023/03/05 05:28:37;;;;;;;32.58;22.23;;;;;;;5.51;54.35;98847.66;5096129;28;20047;-47
2023/03/05 05:31:09;;;;;;;42.45;20.75;;;;;;;5.47;54.59;98840.38;5113773;28;20023;-47
2023/03/05 05:33:37;;;;;;;31.35;19.85;;;;;;;5.51;54.85;98841.66;5096118;28;20023;-47
2023/03/05 05:36:06;;;;;;;37.47;19.40;;;;;;;5.47;54.12;98835.97;5114472;28;20080;-47
2023/03/05 05:38:33;;;;;;;41.42;20.00;;;;;;;5.29;54.22;98832.72;5096006;28;20028;-46
2023/03/05 05:41:06;;;;;;;31.63;18.65;;;;;;;5.15;55.21;98836.78;5114294;28;20016;-47
2023/03/05 05:43:33;;;;;;;32.17;19.23;;;;;;;5.18;54.67;98836.47;5114339;28;20031;-46
2023/03/05 05:46:02;;;;;;;32.70;19.85;;;;;;;5.02;54.77;98842.47;5114169;28;20099;-46
2023/03/05 05:48:30;;;;;;;40.67;20.13;;;;;;;4.73;54.66;98840.31;5114143;28;20034;-46
2023/03/05 05:50:58;;;;;;;36.58;19.77;;;;;;;4.40;55.92;98843.59;5114173;28;20035;-46
2023/03/05 05:53:25;;;;;;;31.60;18.42;;;;;;;4.33;55.83;98839.22;5095776;28;20478;-46
2023/03/05 05:55:52;;;;;;;41.88;21.00;;;;;;;4.28;56.23;98836.25;5114229;28;20020;-46
2023/03/05 05:58:19;;;;;;;43.22;20.90;;;;;;;4.31;57.08;98847.16;5114001;28;20508;-47
2023/03/05 06:00:47;;;;;;;33.22;20.33;;;;;;;4.42;56.75;98845.25;5095698;28;20022;-47
2023/03/05 06:03:14;;;;;;;41.47;20.77;;;;;;;4.54;57.01;98849.19;5113955;28;20027;-47
2023/03/05 06:05:42;;;;;;;38.42;20.65;;;;;;;4.89;57.92;98858.53;5095372;28;20046;-47
2023/03/05 06:08:09;;;;;;;34.95;18.85;;;;;;;5.40;57.03;98846.22;5113804;28;20072;-47
2023/03/05 06:10:36;;;;;;;31.20;19.10;;;;;;;5.85;55.73;98844.06;5113631;28;20076;-47
2023/03/05 06:13:03;;;;;;;37.13;19.50;;;;;;;5.96;54.94;98838.53;5113655;28;20592;-47
2023/03/05 06:15:30;;;;;;;31.73;18.73;;;;;;;6.13;54.20;98841.91;5113690;28;20031;-47
2023/03/05 06:17:58;;;;;;;35.33;18.98;;;;;;;6.22;53.71;98839.25;5113654;28;20128;-47
2023/03/05 06:20:27;;;;;;;38.47;19.33;;;;;;;6.22;54.03;98839.25;5113552;28;20039;-47
2023/03/05 06:23:07;;;;;;;29.17;18.90;;;;;;;6.29;53.23;98841.03;5113400;28;20103;-48
2023/03/05 06:25:48;;;;;;;36.83;20.08;;;;;;;6.26;53.04;98844.00;5113633;28;20485;-48
2023/03/05 06:28:22;;;;;;;49.78;20.45;;;;;;;6.26;53.88;98849.22;5112870;28;20126;-47
2023/03/05 06:31:28;;;;;;;34.83;18.77;;;;;;;6.34;53.20;98837.94;5094979;28;20065;-48
2023/03/05 06:34:01;;;;;;;34.83;18.83;;;;;;;6.29;52.64;98832.41;5098378;28;20554;-47
2023/03/05 06:36:39;;;;;;;38.03;19.90;;;;;;;6.07;52.65;98836.56;5094901;28;20501;-48
2023/03/05 06:39:06;;;;;;;33.58;19.38;;;;;;;5.92;52.52;98839.03;5094848;28;20024;-48
2023/03/05 06:41:43;;;;;;;38.13;21.00;;;;;;;5.57;53.69;98841.00;5112196;28;20157;-49
2023/03/05 06:44:14;;;;;;;37.67;21.88;;;;;;;5.72;54.21;98834.16;5113118;28;20024;-48
2023/03/05 06:46:57;;;;;;;35.80;20.38;;;;;;;5.80;54.26;98835.94;5112893;28;20020;-48
2023/03/05 06:49:28;;;;;;;34.60;21.45;;;;;;;5.72;53.71;98833.34;5113082;28;20020;-47
2023/03/05 06:51:54;;;;;;;29.67;18.25;;;;;;;5.73;53.74;98832.38;5112743;28;20020;-47
2023/03/05 06:54:33;;;;;;;38.08;19.42;;;;;;;5.98;53.35;98827.97;5112996;28;20026;-49
2023/03/05 06:57:02;;;;;;;38.95;22.75;;;;;;;6.10;53.31;98829.22;5112878;28;20026;-48
2023/03/05 06:59:35;;;;;;;34.22;21.80;;;;;;;6.12;53.51;98831.66;5112818;28;20028;-47
2023/03/05 07:02:12;;;;;;;36.00;19.80;;;;;;;6.15;52.60;98833.91;5112779;28;20055;-47
2023/03/05 07:04:56;;;;;;;38.17;18.95;;;;;;;6.22;53.01;98829.69;5112512;28;20035;-47
2023/03/05 07:07:33;;;;;;;40.42;22.13;;;;;;;6.26;52.62;98833.56;5112601;28;20049;-49
2023/03/05 07:10:10;;;;;;;30.27;18.48;;;;;;;5.94;52.03;98827.44;5112591;28;20058;-48
2023/03/05 07:12:39;;;;;;;41.00;19.25;;;;;;;5.60;52.44;98840.69;5112570;28;20057;-48
2023/03/05 07:15:22;;;;;;;33.47;20.20;;;;;;;5.36;53.31;98834.50;5112579;28;20019;-47
2023/03/05 07:17:49;;;;;;;45.38;22.17;;;;;;;5.44;54.52;98831.09;5112545;28;20493;-47
2023/03/05 07:20:24;;;;;;;35.65;20.63;;;;;;;6.10;53.73;98824.00;5094219;28;20031;-47
2023/03/05 07:22:59;;;;;;;39.50;19.45;;;;;;;6.67;52.09;98819.53;5112505;28;20031;-48
2023/03/05 07:25:46;;;;;;;32.97;20.00;;;;;;;7.11;51.76;98821.53;5094106;28;20027;-46
2023/03/05 07:28:15;;;;;;;35.10;20.42;;;;;;;7.38;50.24;98817.53;5094106;28;20451;-47
2023/03/05 07:31:21;;;;;;;35.58;21.20;;;;;;;7.31;49.85;98807.00;5110192;28;20067;-48
2023/03/05 07:33:50;;;;;;;38.38;20.27;;;;;;;7.45;50.26;98810.66;5049452;28;20075;-48
2023/03/05 07:36:18;;;;;;;40.00;21.90;;;;;;;7.72;49.64;98817.06;5032607;28;20128;-47
2023/03/05 07:39:04;;;;;;;30.20;20.13;;;;;;;7.86;49.55;98812.03;5032628;28;20029;-48
2023/03/05 07:41:31;;;;;;;31.67;18.40;;;;;;;7.54;49.03;98817.41;5049422;28;20040;-48
2023/03/05 07:43:57;;;;;;;33.85;20.23;;;;;;;7.18;48.58;98814.59;5049371;28;20519;-47
2023/03/05 07:46:46;;;;;;;36.47;20.60;;;;;;;6.76;49.63;98821.09;5032521;28;20025;-47
2023/03/05 07:49:29;;;;;;;34.58;21.38;;;;;;;6.27;50.67;98818.75;5032682;28;20065;-47
2023/03/05 07:51:56;;;;;;;39.20;22.38;;;;;;;6.16;50.56;98825.94;5049293;28;20546;-47
2023/03/05 07:54:39;;;;;;;38.10;20.45;;;;;;;6.12;51.19;98824.66;5035447;28;20036;-47
2023/03/05 07:57:12;;;;;;;33.70;18.25;;;;;;;6.24;51.26;98824.28;5020315;28;20166;-47
2023/03/05 07:59:39;;;;;;;33.25;20.02;;;;;;;6.42;51.25;98821.44;5053314;28;20040;-48
2023/03/05 08:02:25;;;;;;;33.92;20.45;;;;;;;6.77;50.92;98813.09;5053148;28;20506;-47
2023/03/05 08:05:07;;;;;;;39.72;21.42;;;;;;;6.70;50.00;98817.41;5036561;28;20083;-48
2023/03/05 08:07:46;;;;;;;39.88;21.25;;;;;;;6.72;50.37;98818.03;5081475;28;20034;-48
2023/03/05 08:10:12;;;;;;;34.80;17.13;;;;;;;6.93;50.09;98827.03;5116135;28;20833;-47
2023/03/05 08:12:39;;;;;;;33.97;19.95;;;;;;;7.31;49.76;98820.06;5097807;28;20019;-47
2023/03/05 08:15:06;;;;;;;38.60;19.63;;;;;;;7.63;49.15;98826.00;5097660;28;20073;-47
2023/03/05 08:17:46;;;;;;;40.60;22.55;;;;;;;7.98;48.21;98810.59;5097647;28;20020;-47
2023/03/05 08:20:12;;;;;;;32.97;19.90;;;;;;;8.33;47.63;98809.06;5115959;28;20038;-47
2023/03/05 08:22:53;;;;;;;38.35;19.52;;;;;;;8.51;47.07;98811.31;5097568;28;20026;-48
2023/03/05 08:25:20;;;;;;;33.75;18.50;;;;;;;8.67;45.97;98810.28;5097402;28;20046;-47
2023/03/05 08:27:47;;;;;;;40.90;20.48;;;;;;;8.73;46.63;98806.09;5115799;28;20023;-47
2023/03/05 08:30:18;;;;;;;36.80;20.70;;;;;;;8.79;46.19;98808.81;5115295;28;20130;-47
2023/03/05 08:32:45;;;;;;;33.55;20.25;;;;;;;8.80;45.45;98805.19;5115702;28;20030;-47
2023/03/05 08:35:12;;;;;;;30.65;20.58;;;;;;;8.77;45.04;98804.72;5115648;28;20024;-47
2023/03/05 08:37:38;;;;;;;38.55;22.45;;;;;;;8.56;45.69;98808.13;5115590;28;20081;-47
2023/03/05 08:40:06;;;;;;;34.58;20.98;;;;;;;8.50;46.32;98804.44;5115549;28;20028;-46
2023/03/05 08:42:34;;;;;;;31.15;19.27;;;;;;;8.68;46.76;98795.41;5115573;28;20045;-47
2023/03/05 08:45:01;;;;;;;37.95;21.67;;;;;;;8.88;46.38;98798.22;5115404;28;20019;-47
2023/03/05 08:47:30;;;;;;;36.80;21.40;;;;;;;8.96;45.50;98793.66;5115434;28;20024;-47
2023/03/05 08:49:57;;;;;;;31.80;21.63;;;;;;;8.90;45.61;98793.59;5097007;28;20036;-47
2023/03/05 08:52:26;;;;;;;33.88;20.48;;;;;;;8.81;44.69;98787.66;5096943;28;20016;-47
2023/03/05 08:54:52;;;;;;;33.45;20.83;;;;;;;8.84;44.62;98789.13;5115220;28;20027;-47
2023/03/05 08:57:19;;;;;;;38.47;21.75;;;;;;;8.88;44.96;98785.94;5080066;28;20040;-47
2023/03/05 08:59:46;;;;;;;36.17;19.83;;;;;;;8.94;44.86;98785.19;5115268;28;20401;-47
2023/03/05 09:02:15;;;;;;;37.38;20.25;;;;;;;9.09;44.93;98777.25;5096804;28;20574;-47
2023/03/05 09:04:42;;;;;;;37.85;22.08;;;;;;;9.22;44.40;98783.63;5095677;28;20020;-47
2023/03/05 09:07:21;;;;;;;38.67;21.40;;;;;;;9.36;44.26;98786.16;5093501;28;20032;-47
2023/03/05 09:09:50;;;;;;;33.80;20.95;;;;;;;9.55;43.85;98783.84;5115285;28;20382;-48
2023/03/05 09:12:35;;;;;;;40.05;23.83;;;;;;;9.61;43.48;98785.72;5114886;28;20435;-47
2023/03/05 09:15:20;;;;;;;37.35;23.25;;;;;;;9.76;43.26;98786.44;5114983;28;20020;-48
2023/03/05 09:17:46;;;;;;;31.08;21.80;;;;;;;9.63;43.11;98790.78;5114792;28;20055;-47
2023/03/05 09:20:37;;;;;;;39.72;22.05;;;;;;;9.52;42.83;98784.25;5096435;28;20456;-47
2023/03/05 09:23:19;;;;;;;33.17;22.20;;;;;;;9.57;43.42;98784.47;5114720;28;20056;-48
2023/03/05 09:26:07;;;;;;;34.15;22.98;;;;;;;9.77;43.08;98774.94;5079447;28;20066;-47
2023/03/05 09:28:52;;;;;;;39.85;23.83;;;;;;;10.17;42.89;98780.38;5082630;28;20457;-48
2023/03/05 09:31:19;;;;;;;39.88;23.98;;;;;;;10.39;42.33;98781.09;5114452;28;20106;-47
2023/03/05 09:34:01;;;;;;;37.60;24.52;;;;;;;10.47;42.12;98769.63;5096275;28;20019;-47
2023/03/05 09:36:47;;;;;;;42.10;24.20;;;;;;;10.65;41.69;98768.28;5114455;28;20035;-47
2023/03/05 09:39:19;;;;;;;44.72;23.88;;;;;;;10.84;41.54;98764.84;5096142;28;20024;-47
2023/03/05 09:42:19;;;;;;;44.53;26.02;;;;;;;11.16;41.27;98762.47;5114322;28;20036;-47
2023/03/05 09:45:22;;;;;;;35.25;23.02;;;;;;;11.21;40.53;98754.78;5114408;28;20031;-47
2023/03/05 09:48:26;;;;;;;43.47;23.63;;;;;;;11.37;40.60;98756.22;5094744;28;20608;-48
2023/03/05 09:51:35;;;;;;;39.15;23.30;;;;;;;11.94;40.16;98749.44;5114246;28;20027;-47
2023/03/05 09:54:24;;;;;;;39.17;24.48;;;;;;;12.69;39.11;98740.16;5095661;28;20039;-47
2023/03/05 09:56:57;;;;;;;37.00;23.15;;;;;;;12.87;38.17;98742.09;5113899;28;20512;-45
2023/03/05 09:59:55;;;;;;;50.10;26.77;;;;;;;12.64;37.73;98737.38;5114090;28;20448;-45
2023/03/05 10:03:04;;;;;;;40.78;25.70;;;;;;;12.54;38.48;98735.22;5113933;28;20102;-45
2023/03/05 10:06:10;;;;;;;42.78;24.67;;;;;;;12.79;37.62;98732.59;5113870;28;20028;-46
2023/03/05 10:08:51;;;;;;;41.67;25.85;;;;;;;12.97;37.26;98727.41;5114126;28;20027;-46
2023/03/05 10:11:34;;;;;;;61.35;38.25;;;;;;;13.23;37.12;98717.66;5095476;28;20489;-46
2023/03/05 10:14:04;;;;;;;48.55;34.78;;;;;;;13.08;36.69;98711.91;5113789;28;20091;-45
2023/03/05 10:16:52;;;;;;;72.57;51.60;;;;;;;13.07;37.20;98719.03;5095174;28;20065;-46
2023/03/05 10:19:53;;;;;;;44.00;33.72;;;;;;;13.44;37.07;98716.50;5113570;28;20038;-45
2023/03/05 10:22:33;;;;;;;40.53;27.20;;;;;;;14.35;36.69;98706.91;5113547;28;20094;-47
2023/03/05 10:25:33;;;;;;;44.65;28.38;;;;;;;14.56;34.95;98702.97;5113502;28;20456;-46
2023/03/05 10:28:18;;;;;;;45.22;27.98;;;;;;;14.58;35.04;98705.41;5113727;28;20445;-46
2023/03/05 10:31:16;;;;;;;44.07;30.03;;;;;;;14.93;34.21;98697.56;5113066;28;20093;-46
2023/03/05 10:34:02;;;;;;;42.63;26.60;;;;;;;15.03;34.18;98690.88;5113461;28;20047;-46
2023/03/05 10:36:47;;;;;;;;;;;;;;;15.41;34.26;98697.53;5113666;28;20564;-46
2023/03/05 10:39:50;;;;;;;36.15;25.38;;;;;;;15.76;32.80;98679.81;5113118;28;19915;-46
2023/03/05 10:43:03;;;;;;;42.63;26.27;;;;;;;15.92;32.50;98686.22;5113166;28;20073;-47
2023/03/05 10:45:53;;;;;;;42.25;27.27;;;;;;;15.98;33.00;98687.13;5113066;28;20027;-45
2023/03/05 10:48:45;;;;;;;41.95;28.60;;;;;;;16.27;32.47;98687.13;5094594;28;20047;-46
2023/03/05 10:52:01;;;;;;;39.63;28.55;;;;;;;16.36;32.10;98681.22;5094763;28;20435;-45
2023/03/05 10:54:34;;;;;;;40.65;28.80;;;;;;;16.27;31.59;98676.53;5105380;28;20127;-46
2023/03/05 10:57:11;;;;;;;46.05;29.98;;;;;;;16.37;31.44;98674.06;5112759;28;20034;-46
2023/03/05 10:59:50;;;;;;;43.42;29.80;;;;;;;16.31;31.79;98670.50;5112884;28;20038;-47
2023/03/05 11:02:55;;;;;;;44.25;29.52;;;;;;;17.34;31.30;98666.84;5094477;28;20114;-46
2023/03/05 11:06:01;;;;;;;46.90;29.48;;;;;;;17.42;30.53;98661.09;5112582;28;20054;-46
2023/03/05 11:08:31;;;;;;;46.33;30.53;;;;;;;17.49;30.16;98651.13;5112710;28;20034;-46
2023/03/05 11:11:16;;;;;;;48.72;30.40;;;;;;;17.36;29.97;98654.13;5112627;28;20739;-46
2023/03/05 11:13:59;;;;;;;46.27;30.33;;;;;;;17.46;30.14;98648.94;5112592;28;20031;-46
2023/03/05 11:16:28;;;;;;;45.72;31.23;;;;;;;17.56;29.55;98640.31;5112601;28;20023;-46
2023/03/05 11:19:32;;;;;;;46.00;30.33;;;;;;;17.66;29.93;98643.09;5112522;28;20043;-46
2023/03/05 11:22:13;;;;;;;44.70;29.40;;;;;;;19.13;28.71;98635.94;5049637;28;20049;-46
2023/03/05 11:24:45;;;;;;;45.40;31.10;;;;;;;20.24;26.84;98628.66;5049624;28;20048;-44
2023/03/05 11:27:30;;;;;;;43.97;31.23;;;;;;;20.28;26.11;98627.06;5033708;28;20037;-44
2023/03/05 11:29:58;;;;;;;47.45;31.38;;;;;;;19.69;26.19;98625.56;5049294;28;20126;-43
2023/03/05 11:32:28;;;;;;;37.65;29.73;;;;;;;18.66;27.37;98623.38;5032885;28;20032;-43
2023/03/05 11:34:56;;;;;;;43.95;29.45;;;;;;;18.08;28.40;98618.63;5049605;28;20029;-44
2023/03/05 11:37:33;;;;;;;48.38;31.25;;;;;;;18.25;28.72;98617.72;5049366;28;20033;-44
2023/03/05 11:40:38;;;;;;;49.13;29.88;;;;;;;19.34;27.90;98605.72;5049288;28;20036;-44
2023/03/05 11:43:37;;;;;;;40.40;29.75;;;;;;;19.63;27.03;98599.97;5049549;28;20094;-45
2023/03/05 11:46:04;;;;;;;41.78;28.95;;;;;;;19.70;26.69;98600.53;5049311;28;20035;-44
2023/03/05 11:48:40;;;;;;;39.50;29.45;;;;;;;20.19;26.30;98593.22;5049396;28;20059;-44
2023/03/05 11:51:32;;;;;;;43.92;28.88;;;;;;;20.71;25.93;98586.81;5032575;28;20069;-44
2023/03/05 11:54:11;;;;;;;38.78;28.05;;;;;;;20.90;25.36;98574.50;5049438;28;20083;-44
2023/03/05 11:57:01;;;;;;;43.08;30.33;;;;;;;21.21;25.31;98577.09;5083235;28;20036;-44
2023/03/05 11:59:50;;;;;;;44.42;29.83;;;;;;;21.03;24.99;98572.34;5090869;28;20111;-44